»·PEaware :: N1XC KCMA-KDLO

N1XC :: KCMA-KDLO

FLIGHT INFORMATION

Flight Status: Arrived
Operator: Privately registered:
United States
More flights under this callsign
Pilot: Adam S. (8156)
Aircraft: CESSNA T210 TURBO CENTURION
(T210)
More flights by this aircraft type
Origin: KCMA Camarillo
United States
Destination: KDLO Delano Mun
United States
More flights between these airports :: More routes between these airports
Route: DIRECT
File this flight plan on PilotEdge
Remarks:
Altitude:
(Current/Filed)
10,500ft
Speed:
(Current/Filed)
160kts
Departed: 31-Aug-17 10:29 PM
Arrived: 31-Aug-17 11:06 PM
Distance/Time
Traveled:
92nm/0:37
Distance/Time
To Go:
Arrived

Flight Plot

Page will automatically refresh every two minutes.


Map Options




Map Legend


Flown Route
Filed Route
Departure Airport
Arrival Airport
Navaid (VOR, NDB)
Fix

Horizontal Profiles

Position Reports

Time Latitude Longitude Heading Altitude Ground
Speed
31-Aug-17 22:32 34.215453 -119.116500 274 1233ft 92kts
31-Aug-17 22:33 34.239600 -119.130241 22 2452ft 119kts
31-Aug-17 22:34 34.267770 -119.114984 26 4050ft 108kts
31-Aug-17 22:35 34.295842 -119.102072 16 5346ft 107kts
31-Aug-17 22:36 34.325698 -119.098504 4 6439ft 109kts
31-Aug-17 22:37 34.356244 -119.099386 0 7522ft 111kts
31-Aug-17 22:38 34.387032 -119.101763 358 8597ft 111kts
31-Aug-17 22:39 34.417907 -119.104604 358 9650ft 113kts
31-Aug-17 22:40 34.449275 -119.107631 358 10712ft 114kts
31-Aug-17 22:41 34.488298 -119.111201 356 10894ft 167kts
31-Aug-17 22:42 34.536773 -119.115938 355 10886ft 178kts
31-Aug-17 22:43 34.586274 -119.120895 355 10884ft 178kts
31-Aug-17 22:44 34.635710 -119.125732 354 10885ft 180kts
31-Aug-17 22:45 34.685772 -119.130686 354 10885ft 180kts
31-Aug-17 22:46 34.728056 -119.134861 354 10885ft 180kts
31-Aug-17 22:47 34.778107 -119.139806 354 10885ft 180kts
31-Aug-17 22:48 34.828068 -119.144748 354 10885ft 180kts
31-Aug-17 22:49 34.878137 -119.149707 354 10885ft 180kts
31-Aug-17 22:50 34.927843 -119.154636 354 10884ft 179kts
31-Aug-17 22:51 34.977880 -119.159856 358 10594ft 187kts
31-Aug-17 22:52 35.031527 -119.164953 358 10129ft 198kts
31-Aug-17 22:53 35.086751 -119.170411 358 9689ft 200kts
31-Aug-17 22:54 35.138924 -119.175609 358 9279ft 199kts
31-Aug-17 22:55 35.193179 -119.181024 358 8856ft 198kts
31-Aug-17 22:56 35.247692 -119.186470 357 8432ft 196kts
31-Aug-17 22:57 35.301908 -119.191863 357 8010ft 195kts
31-Aug-17 22:58 35.355659 -119.197247 357 7591ft 193kts
31-Aug-17 22:59 35.408932 -119.202592 357 7174ft 192kts
31-Aug-17 23:00 35.461979 -119.207915 357 6476ft 190kts
31-Aug-17 23:01 35.514315 -119.213168 357 5530ft 189kts
31-Aug-17 23:02 35.566114 -119.218392 357 4476ft 187kts
31-Aug-17 23:03 35.616491 -119.223476 356 3432ft 174kts
31-Aug-17 23:04 35.663288 -119.223713 14 2376ft 168kts
31-Aug-17 23:05 35.705378 -119.201352 18 1350ft 165kts
31-Aug-17 23:06 35.743627 -119.205750 342 1401ft 127kts
31-Aug-17 23:07 35.773481 -119.217635 340 1362ft 97kts
31-Aug-17 23:08 35.770995 -119.244348 205 712ft 97kts
31-Aug-17 23:09 35.748159 -119.237765 158 316ft 68kts
31-Aug-17 23:10 35.741509 -119.234584 159 316ft 19kts
31-Aug-17 23:11 35.738538 -119.233953 293 316ft 8kts
31-Aug-17 23:12 35.741466 -119.236263 338 316ft 16kts
31-Aug-17 23:13 35.744313 -119.238338 16 316ft 0kts
31-Aug-17 23:14 35.757844 -119.211376 342 1403ft 119kts
31-Aug-17 23:15 35.779175 -119.228348 254 1151ft 99kts
31-Aug-17 23:16 35.760413 -119.243612 159 534ft 87kts
31-Aug-17 23:17 35.744401 -119.235972 157 316ft 17kts
31-Aug-17 23:18 35.744310 -119.238337 52 316ft 0kts
31-Aug-17 23:19 35.744310 -119.238337 52 316ft 0kts
31-Aug-17 23:20 35.744310 -119.238337 52 316ft 0kts
31-Aug-17 23:21 35.744310 -119.238337 52 316ft 0kts

Navigation Log

Ident Type
Flight plan parsing failed, navigation log unavailable